sensor_id;sensor_type;location;lat;lon;timestamp;pressure;altitude;pressure_sealevel;temperature;humidity
10688;BME280;5392;42.688;23.298;2023-03-18T00:00:14;57438.47;;;-144.48;100.00
10688;BME280;5392;42.688;23.298;2023-03-18T00:02:43;57417.59;;;-144.48;100.00
10688;BME280;5392;42.688;23.298;2023-03-18T00:05:11;57471.88;;;-144.48;100.00
10688;BME280;5392;42.688;23.298;2023-03-18T00:07:38;57440.56;;;-144.48;100.00
10688;BME280;5392;42.688;23.298;2023-03-18T00:10:07;57405.06;;;-144.48;100.00
10688;BME280;5392;42.688;23.298;2023-03-18T00:12:36;57421.78;;;-144.48;100.00
10688;BME280;5392;42.688;23.298;2023-03-18T00:15:09;57446.81;;;-144.48;100.00
10688;BME280;5392;42.688;23.298;2023-03-18T00:17:37;57419.69;;;-144.48;100.00
10688;BME280;5392;42.688;23.298;2023-03-18T00:20:06;57467.69;;;-144.48;100.00
10688;BME280;5392;42.688;23.298;2023-03-18T00:22:36;57421.78;;;-144.48;100.00
10688;BME280;5392;42.688;23.298;2023-03-18T00:25:04;57438.47;;;-144.48;100.00
10688;BME280;5392;42.688;23.298;2023-03-18T00:27:33;57432.22;;;-144.48;100.00
10688;BME280;5392;42.688;23.298;2023-03-18T00:30:02;57409.25;;;-144.48;100.00
10688;BME280;5392;42.688;23.298;2023-03-18T00:32:30;57453.09;;;-144.48;100.00
10688;BME280;5392;42.688;23.298;2023-03-18T00:34:58;57405.06;;;-144.48;100.00
10688;BME280;5392;42.688;23.298;2023-03-18T00:37:27;57455.16;;;-144.48;100.00
10688;BME280;5392;42.688;23.298;2023-03-18T00:40:01;57442.66;;;-144.48;100.00
10688;BME280;5392;42.688;23.298;2023-03-18T00:42:38;57455.16;;;-144.48;100.00
10688;BME280;5392;42.688;23.298;2023-03-18T00:45:14;57446.81;;;-144.48;100.00
10688;BME280;5392;42.688;23.298;2023-03-18T00:47:42;57451.00;;;-144.48;100.00
10688;BME280;5392;42.688;23.298;2023-03-18T00:50:10;57432.22;;;-144.48;100.00
10688;BME280;5392;42.688;23.298;2023-03-18T00:52:37;57442.66;;;-144.48;100.00
10688;BME280;5392;42.688;23.298;2023-03-18T00:55:05;57451.00;;;-144.48;100.00
10688;BME280;5392;42.688;23.298;2023-03-18T00:57:32;57453.09;;;-144.48;100.00
10688;BME280;5392;42.688;23.298;2023-03-18T00:59:59;57425.94;;;-144.48;100.00
10688;BME280;5392;42.688;23.298;2023-03-18T01:02:26;57421.78;;;-144.48;100.00
10688;BME280;5392;42.688;23.298;2023-03-18T01:07:39;57440.56;;;-144.48;100.00
10688;BME280;5392;42.688;23.298;2023-03-18T01:10:08;57390.47;;;-144.48;100.00
10688;BME280;5392;42.688;23.298;2023-03-18T01:12:35;57419.69;;;-144.48;100.00
10688;BME280;5392;42.688;23.298;2023-03-18T01:15:05;57436.38;;;-144.48;100.00
10688;BME280;5392;42.688;23.298;2023-03-18T01:17:32;57453.09;;;-144.48;100.00
10688;BME280;5392;42.688;23.298;2023-03-18T01:19:58;57403.00;;;-144.48;100.00
10688;BME280;5392;42.688;23.298;2023-03-18T01:22:25;57417.59;;;-144.48;100.00
10688;BME280;5392;42.688;23.298;2023-03-18T01:24:52;57417.59;;;-144.48;100.00
10688;BME280;5392;42.688;23.298;2023-03-18T01:27:18;57430.13;;;-144.48;100.00
10688;BME280;5392;42.688;23.298;2023-03-18T01:29:46;57446.81;;;-144.48;100.00
10688;BME280;5392;42.688;23.298;2023-03-18T01:32:14;57446.81;;;-144.48;100.00
10688;BME280;5392;42.688;23.298;2023-03-18T01:34:41;57432.22;;;-144.48;100.00
10688;BME280;5392;42.688;23.298;2023-03-18T01:37:08;57413.44;;;-144.48;100.00
10688;BME280;5392;42.688;23.298;2023-03-18T01:39:34;57392.56;;;-144.48;100.00
10688;BME280;5392;42.688;23.298;2023-03-18T01:42:02;57457.25;;;-144.48;100.00
10688;BME280;5392;42.688;23.298;2023-03-18T01:44:30;57417.59;;;-144.48;100.00
10688;BME280;5392;42.688;23.298;2023-03-18T01:46:57;57430.13;;;-144.48;100.00
10688;BME280;5392;42.688;23.298;2023-03-18T01:49:27;57417.59;;;-144.48;100.00
10688;BME280;5392;42.688;23.298;2023-03-18T01:51:57;57417.59;;;-144.48;100.00
10688;BME280;5392;42.688;23.298;2023-03-18T01:54:27;57455.16;;;-144.48;100.00
10688;BME280;5392;42.688;23.298;2023-03-18T01:56:57;57438.47;;;-144.48;100.00
10688;BME280;5392;42.688;23.298;2023-03-18T01:59:26;57407.16;;;-144.48;100.00
10688;BME280;5392;42.688;23.298;2023-03-18T02:02:13;57444.72;;;-144.48;100.00
10688;BME280;5392;42.688;23.298;2023-03-18T02:04:43;57432.22;;;-144.48;100.00
10688;BME280;5392;42.688;23.298;2023-03-18T02:07:16;57451.00;;;-144.48;100.00
10688;BME280;5392;42.688;23.298;2023-03-18T02:09:45;57411.34;;;-144.48;100.00
10688;BME280;5392;42.688;23.298;2023-03-18T02:12:14;57425.94;;;-144.48;100.00
10688;BME280;5392;42.688;23.298;2023-03-18T02:14:42;57394.63;;;-144.48;100.00
10688;BME280;5392;42.688;23.298;2023-03-18T02:17:14;57394.63;;;-144.48;100.00
10688;BME280;5392;42.688;23.298;2023-03-18T02:22:49;57384.19;;;-144.48;100.00
10688;BME280;5392;42.688;23.298;2023-03-18T02:25:35;57411.34;;;-144.48;100.00
10688;BME280;5392;42.688;23.298;2023-03-18T02:28:09;57398.81;;;-144.48;100.00
10688;BME280;5392;42.688;23.298;2023-03-18T02:30:49;57394.63;;;-144.48;100.00
10688;BME280;5392;42.688;23.298;2023-03-18T02:33:20;57440.56;;;-144.48;100.00
10688;BME280;5392;42.688;23.298;2023-03-18T02:35:53;57423.88;;;-144.48;100.00
10688;BME280;5392;42.688;23.298;2023-03-18T02:38:21;57461.44;;;-144.48;100.00
10688;BME280;5392;42.688;23.298;2023-03-18T02:40:48;57423.88;;;-144.48;100.00
10688;BME280;5392;42.688;23.298;2023-03-18T02:43:19;57425.94;;;-144.48;100.00
10688;BME280;5392;42.688;23.298;2023-03-18T02:48:43;57436.38;;;-144.48;100.00
10688;BME280;5392;42.688;23.298;2023-03-18T02:51:12;57438.47;;;-144.48;100.00
10688;BME280;5392;42.688;23.298;2023-03-18T02:53:40;57413.44;;;-144.48;100.00
10688;BME280;5392;42.688;23.298;2023-03-18T02:56:07;57436.38;;;-144.48;100.00
10688;BME280;5392;42.688;23.298;2023-03-18T02:58:35;57388.38;;;-144.48;100.00
10688;BME280;5392;42.688;23.298;2023-03-18T03:01:06;57438.47;;;-144.48;100.00
10688;BME280;5392;42.688;23.298;2023-03-18T03:03:34;57467.69;;;-144.48;100.00
10688;BME280;5392;42.688;23.298;2023-03-18T03:06:01;57409.25;;;-144.48;100.00
10688;BME280;5392;42.688;23.298;2023-03-18T03:08:29;57384.19;;;-144.48;100.00
10688;BME280;5392;42.688;23.298;2023-03-18T03:10:56;57407.16;;;-144.48;100.00
10688;BME280;5392;42.688;23.298;2023-03-18T03:13:23;57411.34;;;-144.48;100.00
10688;BME280;5392;42.688;23.298;2023-03-18T03:15:50;57442.66;;;-144.48;100.00
10688;BME280;5392;42.688;23.298;2023-03-18T03:18:17;57446.81;;;-144.48;100.00
10688;BME280;5392;42.688;23.298;2023-03-18T03:20:44;57413.44;;;-144.48;100.00
10688;BME280;5392;42.688;23.298;2023-03-18T03:23:13;57421.78;;;-144.48;100.00
10688;BME280;5392;42.688;23.298;2023-03-18T03:25:41;57400.91;;;-144.48;100.00
10688;BME280;5392;42.688;23.298;2023-03-18T03:28:12;57430.13;;;-144.48;100.00
10688;BME280;5392;42.688;23.298;2023-03-18T03:30:39;57455.16;;;-144.48;100.00
10688;BME280;5392;42.688;23.298;2023-03-18T03:33:06;57419.69;;;-144.48;100.00
10688;BME280;5392;42.688;23.298;2023-03-18T03:35:33;57442.66;;;-144.48;100.00
10688;BME280;5392;42.688;23.298;2023-03-18T03:38:00;57430.13;;;-144.48;100.00
10688;BME280;5392;42.688;23.298;2023-03-18T03:40:27;57425.94;;;-144.48;100.00
10688;BME280;5392;42.688;23.298;2023-03-18T03:42:54;57442.66;;;-144.48;100.00
10688;BME280;5392;42.688;23.298;2023-03-18T03:45:22;57396.72;;;-144.48;100.00
10688;BME280;5392;42.688;23.298;2023-03-18T03:47:49;57423.88;;;-144.48;100.00
10688;BME280;5392;42.688;23.298;2023-03-18T03:50:17;57405.06;;;-144.48;100.00
10688;BME280;5392;42.688;23.298;2023-03-18T03:52:44;57423.88;;;-144.48;100.00
10688;BME280;5392;42.688;23.298;2023-03-18T03:55:13;57423.88;;;-144.48;100.00
10688;BME280;5392;42.688;23.298;2023-03-18T03:57:40;57403.00;;;-144.48;100.00
10688;BME280;5392;42.688;23.298;2023-03-18T04:00:11;57473.97;;;-144.48;100.00
10688;BME280;5392;42.688;23.298;2023-03-18T04:02:40;57411.34;;;-144.48;100.00
10688;BME280;5392;42.688;23.298;2023-03-18T04:05:08;57388.38;;;-144.48;100.00
10688;BME280;5392;42.688;23.298;2023-03-18T04:07:36;57413.44;;;-144.48;100.00
10688;BME280;5392;42.688;23.298;2023-03-18T04:10:05;57421.78;;;-144.48;100.00
10688;BME280;5392;42.688;23.298;2023-03-18T04:12:32;57423.88;;;-144.48;100.00
10688;BME280;5392;42.688;23.298;2023-03-18T04:14:58;57436.38;;;-144.48;100.00
10688;BME280;5392;42.688;23.298;2023-03-18T04:17:25;57419.69;;;-144.48;100.00
10688;BME280;5392;42.688;23.298;2023-03-18T04:19:52;57463.53;;;-144.48;100.00
10688;BME280;5392;42.688;23.298;2023-03-18T04:22:18;57459.34;;;-144.48;100.00
10688;BME280;5392;42.688;23.298;2023-03-18T04:24:45;57463.53;;;-144.48;100.00
10688;BME280;5392;42.688;23.298;2023-03-18T04:27:12;57425.94;;;-144.48;100.00
10688;BME280;5392;42.688;23.298;2023-03-18T04:29:39;57405.06;;;-144.48;100.00
10688;BME280;5392;42.688;23.298;2023-03-18T04:32:06;57413.44;;;-144.48;100.00
10688;BME280;5392;42.688;23.298;2023-03-18T04:34:33;57407.16;;;-144.48;100.00
10688;BME280;5392;42.688;23.298;2023-03-18T04:37:00;57446.81;;;-144.48;100.00
10688;BME280;5392;42.688;23.298;2023-03-18T04:39:26;57421.78;;;-144.48;100.00
10688;BME280;5392;42.688;23.298;2023-03-18T04:41:53;57442.66;;;-144.48;100.00
10688;BME280;5392;42.688;23.298;2023-03-18T04:44:23;57428.03;;;-144.48;100.00
10688;BME280;5392;42.688;23.298;2023-03-18T04:46:51;57446.81;;;-144.48;100.00
10688;BME280;5392;42.688;23.298;2023-03-18T04:49:19;57469.78;;;-144.48;100.00
10688;BME280;5392;42.688;23.298;2023-03-18T04:51:46;57411.34;;;-144.48;100.00
10688;BME280;5392;42.688;23.298;2023-03-18T04:54:13;57451.00;;;-144.48;100.00
10688;BME280;5392;42.688;23.298;2023-03-18T04:56:40;57432.22;;;-144.48;100.00
10688;BME280;5392;42.688;23.298;2023-03-18T04:59:07;57413.44;;;-144.48;100.00
10688;BME280;5392;42.688;23.298;2023-03-18T05:01:34;57471.88;;;-144.48;100.00
10688;BME280;5392;42.688;23.298;2023-03-18T05:04:01;57417.59;;;-144.48;100.00
10688;BME280;5392;42.688;23.298;2023-03-18T05:06:29;57423.88;;;-144.48;100.00
10688;BME280;5392;42.688;23.298;2023-03-18T05:08:58;57425.94;;;-144.48;100.00
10688;BME280;5392;42.688;23.298;2023-03-18T05:11:26;57438.47;;;-144.48;100.00
10688;BME280;5392;42.688;23.298;2023-03-18T05:13:53;57405.06;;;-144.48;100.00
10688;BME280;5392;42.688;23.298;2023-03-18T05:16:20;57465.59;;;-144.48;100.00
10688;BME280;5392;42.688;23.298;2023-03-18T05:18:47;57409.25;;;-144.48;100.00
10688;BME280;5392;42.688;23.298;2023-03-18T05:21:14;57444.72;;;-144.48;100.00
10688;BME280;5392;42.688;23.298;2023-03-18T05:23:41;57444.72;;;-144.48;99.72
10688;BME280;5392;42.688;23.298;2023-03-18T05:26:08;57442.66;;;-144.48;90.04
10688;BME280;5392;42.688;23.298;2023-03-18T05:28:37;57430.13;;;-144.48;84.07
10688;BME280;5392;42.688;23.298;2023-03-18T05:31:05;57476.03;;;-144.48;79.47
10688;BME280;5392;42.688;23.298;2023-03-18T05:33:33;57403.00;;;-144.48;74.26
10688;BME280;5392;42.688;23.298;2023-03-18T05:35:59;57425.94;;;-144.48;67.09
10688;BME280;5392;42.688;23.298;2023-03-18T05:38:26;57417.59;;;-144.48;61.44
10688;BME280;5392;42.688;23.298;2023-03-18T05:40:53;57440.56;;;-144.48;63.25
10688;BME280;5392;42.688;23.298;2023-03-18T05:43:20;57432.22;;;-144.48;58.02
10688;BME280;5392;42.688;23.298;2023-03-18T05:45:47;57459.34;;;-144.48;55.17
10688;BME280;5392;42.688;23.298;2023-03-18T05:48:14;57448.91;;;-144.48;55.47
10688;BME280;5392;42.688;23.298;2023-03-18T05:50:42;57453.09;;;-144.48;57.26
10688;BME280;5392;42.688;23.298;2023-03-18T05:53:09;57457.25;;;-144.48;57.92
10688;BME280;5392;42.688;23.298;2023-03-18T05:55:38;57428.03;;;-144.48;59.01
10688;BME280;5392;42.688;23.298;2023-03-18T05:58:06;57482.31;;;-144.48;60.26
10688;BME280;5392;42.688;23.298;2023-03-18T06:00:34;57453.09;;;-144.48;62.47
10688;BME280;5392;42.688;23.298;2023-03-18T06:03:01;57411.34;;;-144.48;63.89
10688;BME280;5392;42.688;23.298;2023-03-18T06:05:28;57407.16;;;-144.48;65.65
10688;BME280;5392;42.688;23.298;2023-03-18T06:07:59;57425.94;;;-144.48;68.59
10688;BME280;5392;42.688;23.298;2023-03-18T06:10:28;57446.81;;;-144.48;67.77
10688;BME280;5392;42.688;23.298;2023-03-18T06:12:55;57417.59;;;-144.48;67.89
10688;BME280;5392;42.688;23.298;2023-03-18T06:15:22;57403.00;;;-144.48;69.57
10688;BME280;5392;42.688;23.298;2023-03-18T06:17:50;57392.56;;;-144.48;70.96
10688;BME280;5392;42.688;23.298;2023-03-18T06:20:17;57403.00;;;-144.48;74.82
10688;BME280;5392;42.688;23.298;2023-03-18T06:22:45;57463.53;;;-144.48;70.94
10688;BME280;5392;42.688;23.298;2023-03-18T06:25:17;57423.88;;;-144.48;66.74
10688;BME280;5392;42.688;23.298;2023-03-18T06:27:44;57446.81;;;-144.48;63.90
10688;BME280;5392;42.688;23.298;2023-03-18T06:30:13;57430.13;;;-144.48;63.21
10688;BME280;5392;42.688;23.298;2023-03-18T06:32:41;57392.56;;;-144.48;60.35
10688;BME280;5392;42.688;23.298;2023-03-18T06:35:09;57440.56;;;-144.48;61.00
10688;BME280;5392;42.688;23.298;2023-03-18T06:37:37;57457.25;;;-144.48;60.12
10688;BME280;5392;42.688;23.298;2023-03-18T06:40:06;57440.56;;;-144.48;59.65
10688;BME280;5392;42.688;23.298;2023-03-18T06:42:32;57421.78;;;-144.48;58.27
10688;BME280;5392;42.688;23.298;2023-03-18T06:44:59;57405.06;;;-144.48;57.65
10688;BME280;5392;42.688;23.298;2023-03-18T06:47:27;57423.88;;;-144.48;58.15
10688;BME280;5392;42.688;23.298;2023-03-18T06:49:54;57411.34;;;-144.48;58.28
10688;BME280;5392;42.688;23.298;2023-03-18T06:52:22;57451.00;;;-144.48;57.91
10688;BME280;5392;42.688;23.298;2023-03-18T06:54:49;57428.03;;;-144.48;58.71
10688;BME280;5392;42.688;23.298;2023-03-18T06:57:16;57432.22;;;-144.48;60.07
10688;BME280;5392;42.688;23.298;2023-03-18T06:59:43;57428.03;;;-144.48;62.25
10688;BME280;5392;42.688;23.298;2023-03-18T07:02:11;57430.13;;;-144.48;62.89
10688;BME280;5392;42.688;23.298;2023-03-18T07:04:38;57415.50;;;-144.48;62.46
10688;BME280;5392;42.688;23.298;2023-03-18T07:07:05;57425.94;;;-144.48;62.22
10688;BME280;5392;42.688;23.298;2023-03-18T07:09:32;57436.38;;;-144.48;61.63
10688;BME280;5392;42.688;23.298;2023-03-18T07:11:59;57446.81;;;-144.48;61.52
10688;BME280;5392;42.688;23.298;2023-03-18T07:14:26;57442.66;;;-144.48;62.77
10688;BME280;5392;42.688;23.298;2023-03-18T07:16:56;57436.38;;;-144.48;62.88
10688;BME280;5392;42.688;23.298;2023-03-18T07:19:23;57446.81;;;-144.48;62.31
10688;BME280;5392;42.688;23.298;2023-03-18T07:21:50;57434.28;;;-144.48;63.07
10688;BME280;5392;42.688;23.298;2023-03-18T07:24:16;57403.00;;;-144.48;63.12
10688;BME280;5392;42.688;23.298;2023-03-18T07:26:45;57417.59;;;-144.48;62.61
10688;BME280;5392;42.688;23.298;2023-03-18T07:29:12;57448.91;;;-144.48;62.84
10688;BME280;5392;42.688;23.298;2023-03-18T07:31:39;57457.25;;;-144.48;62.82
10688;BME280;5392;42.688;23.298;2023-03-18T07:34:06;57405.06;;;-144.48;63.18
10688;BME280;5392;42.688;23.298;2023-03-18T07:36:32;57455.16;;;-144.48;63.36
10688;BME280;5392;42.688;23.298;2023-03-18T07:38:59;57398.81;;;-144.48;64.30
10688;BME280;5392;42.688;23.298;2023-03-18T07:41:26;57446.81;;;-144.48;64.08
10688;BME280;5392;42.688;23.298;2023-03-18T07:43:53;57457.25;;;-144.48;63.44
10688;BME280;5392;42.688;23.298;2023-03-18T07:46:20;57440.56;;;-144.48;63.74
10688;BME280;5392;42.688;23.298;2023-03-18T07:48:47;57425.94;;;-144.48;65.02
10688;BME280;5392;42.688;23.298;2023-03-18T07:51:14;57425.94;;;-144.48;64.11
10688;BME280;5392;42.688;23.298;2023-03-18T07:53:41;57484.41;;;-144.48;63.21
10688;BME280;5392;42.688;23.298;2023-03-18T07:56:08;57417.59;;;-144.48;62.55
10688;BME280;5392;42.688;23.298;2023-03-18T07:58:38;57438.47;;;-144.48;62.57
10688;BME280;5392;42.688;23.298;2023-03-18T08:01:04;57442.66;;;-144.48;62.46
10688;BME280;5392;42.688;23.298;2023-03-18T08:03:31;57400.91;;;-144.48;63.63
10688;BME280;5392;42.688;23.298;2023-03-18T08:05:59;57455.16;;;-144.48;61.82
10688;BME280;5392;42.688;23.298;2023-03-18T08:08:26;57453.09;;;-144.48;62.06
10688;BME280;5392;42.688;23.298;2023-03-18T08:10:57;57430.13;;;-144.48;61.80
10688;BME280;5392;42.688;23.298;2023-03-18T08:13:26;57430.13;;;-144.48;62.67
10688;BME280;5392;42.688;23.298;2023-03-18T08:15:53;57446.81;;;-144.48;63.25
10688;BME280;5392;42.688;23.298;2023-03-18T08:18:21;57430.13;;;-144.48;62.39
10688;BME280;5392;42.688;23.298;2023-03-18T08:20:49;57392.56;;;-144.48;62.50
10688;BME280;5392;42.688;23.298;2023-03-18T08:23:15;57442.66;;;-144.48;61.49
10688;BME280;5392;42.688;23.298;2023-03-18T08:25:46;57413.44;;;-144.48;61.89
10688;BME280;5392;42.688;23.298;2023-03-18T08:28:13;57392.56;;;-144.48;62.31
10688;BME280;5392;42.688;23.298;2023-03-18T08:30:40;57394.63;;;-144.48;64.28
10688;BME280;5392;42.688;23.298;2023-03-18T08:33:07;57415.50;;;-144.48;65.12
10688;BME280;5392;42.688;23.298;2023-03-18T08:35:34;57413.44;;;-144.48;63.73
10688;BME280;5392;42.688;23.298;2023-03-18T08:38:01;57405.06;;;-144.48;62.76
10688;BME280;5392;42.688;23.298;2023-03-18T08:40:29;57409.25;;;-144.48;62.16
10688;BME280;5392;42.688;23.298;2023-03-18T08:42:56;57430.13;;;-144.48;61.80
10688;BME280;5392;42.688;23.298;2023-03-18T08:45:22;57405.06;;;-144.48;61.54
10688;BME280;5392;42.688;23.298;2023-03-18T08:47:49;57394.63;;;-144.48;63.46
10688;BME280;5392;42.688;23.298;2023-03-18T08:50:16;57407.16;;;-144.48;62.92
10688;BME280;5392;42.688;23.298;2023-03-18T08:52:43;57457.25;;;-144.48;63.94
10688;BME280;5392;42.688;23.298;2023-03-18T08:55:10;57455.16;;;-144.48;66.69
10688;BME280;5392;42.688;23.298;2023-03-18T08:57:37;57425.94;;;-144.48;65.72
10688;BME280;5392;42.688;23.298;2023-03-18T09:00:05;57409.25;;;-144.48;65.01
10688;BME280;5392;42.688;23.298;2023-03-18T09:02:31;57459.34;;;-144.48;64.25
10688;BME280;5392;42.688;23.298;2023-03-18T09:04:59;57430.13;;;-144.48;64.07
10688;BME280;5392;42.688;23.298;2023-03-18T09:07:26;57415.50;;;-144.48;63.81
10688;BME280;5392;42.688;23.298;2023-03-18T09:09:53;57407.16;;;-144.48;64.49
10688;BME280;5392;42.688;23.298;2023-03-18T09:12:20;57421.78;;;-144.48;64.62
10688;BME280;5392;42.688;23.298;2023-03-18T09:14:48;57448.91;;;-144.48;63.00
10688;BME280;5392;42.688;23.298;2023-03-18T09:17:15;57384.19;;;-144.48;61.82
10688;BME280;5392;42.688;23.298;2023-03-18T09:19:42;57430.13;;;-144.48;61.90
10688;BME280;5392;42.688;23.298;2023-03-18T09:22:08;57411.34;;;-144.48;63.40
10688;BME280;5392;42.688;23.298;2023-03-18T09:24:35;57428.03;;;-144.48;62.20
10688;BME280;5392;42.688;23.298;2023-03-18T09:27:02;57461.44;;;-144.48;62.92
10688;BME280;5392;42.688;23.298;2023-03-18T09:29:29;57444.72;;;-144.48;61.72
10688;BME280;5392;42.688;23.298;2023-03-18T09:31:56;57425.94;;;-144.48;62.68
10688;BME280;5392;42.688;23.298;2023-03-18T09:34:23;57423.88;;;-144.48;63.05
10688;BME280;5392;42.688;23.298;2023-03-18T09:36:49;57436.38;;;-144.48;62.97
10688;BME280;5392;42.688;23.298;2023-03-18T09:39:20;57469.78;;;-144.48;62.64
10688;BME280;5392;42.688;23.298;2023-03-18T09:44:42;57425.94;;;-144.48;62.26
10688;BME280;5392;42.688;23.298;2023-03-18T09:47:40;57473.97;;;-144.48;63.62
10688;BME280;5392;42.688;23.298;2023-03-18T09:53:33;57444.72;;;-144.48;64.49
10688;BME280;5392;42.688;23.298;2023-03-18T09:58:17;57465.59;;;-144.48;63.90
10688;BME280;5392;42.688;23.298;2023-03-18T10:00:46;57425.94;;;-144.48;63.61
10688;BME280;5392;42.688;23.298;2023-03-18T10:03:29;57423.88;;;-144.48;63.87
10688;BME280;5392;42.688;23.298;2023-03-18T10:14:25;57461.44;;;-144.48;62.76
10688;BME280;5392;42.688;23.298;2023-03-18T10:17:13;57459.34;;;-144.48;63.59
10688;BME280;5392;42.688;23.298;2023-03-18T10:19:46;57442.66;;;-144.48;63.17
10688;BME280;5392;42.688;23.298;2023-03-18T10:25:18;57453.09;;;-144.48;62.25
10688;BME280;5392;42.688;23.298;2023-03-18T10:31:07;57451.00;;;-144.48;59.95
10688;BME280;5392;42.688;23.298;2023-03-18T10:39:02;57434.28;;;-144.48;60.51
10688;BME280;5392;42.688;23.298;2023-03-18T10:41:32;57457.25;;;-144.48;61.63
10688;BME280;5392;42.688;23.298;2023-03-18T10:44:10;57455.16;;;-144.48;59.75
10688;BME280;5392;42.688;23.298;2023-03-18T10:46:42;57430.13;;;-144.48;59.76
10688;BME280;5392;42.688;23.298;2023-03-18T10:49:20;57415.50;;;-144.48;61.84
10688;BME280;5392;42.688;23.298;2023-03-18T10:51:59;57386.28;;;-144.48;61.91
10688;BME280;5392;42.688;23.298;2023-03-18T10:54:42;57432.22;;;-144.48;60.51
10688;BME280;5392;42.688;23.298;2023-03-18T10:57:15;57440.56;;;-144.48;59.87
10688;BME280;5392;42.688;23.298;2023-03-18T10:59:43;57455.16;;;-144.48;60.56
10688;BME280;5392;42.688;23.298;2023-03-18T11:02:15;57425.94;;;-144.48;60.70
10688;BME280;5392;42.688;23.298;2023-03-18T11:04:52;57430.13;;;-144.48;60.51
10688;BME280;5392;42.688;23.298;2023-03-18T11:07:27;57465.59;;;-144.48;63.92
10688;BME280;5392;42.688;23.298;2023-03-18T11:09:54;57442.66;;;-144.48;64.84
10688;BME280;5392;42.688;23.298;2023-03-18T11:12:36;57463.53;;;-144.48;64.84
10688;BME280;5392;42.688;23.298;2023-03-18T11:15:09;57409.25;;;-144.48;65.57
10688;BME280;5392;42.688;23.298;2023-03-18T11:17:37;57394.63;;;-144.48;64.39
10688;BME280;5392;42.688;23.298;2023-03-18T11:22:47;57419.69;;;-144.48;64.15
10688;BME280;5392;42.688;23.298;2023-03-18T11:25:23;57425.94;;;-144.48;63.78
10688;BME280;5392;42.688;23.298;2023-03-18T11:28:02;57423.88;;;-144.48;63.74
10688;BME280;5392;42.688;23.298;2023-03-18T11:30:43;57354.97;;;-144.48;62.90
10688;BME280;5392;42.688;23.298;2023-03-18T11:38:30;57400.91;;;-144.48;61.61
10688;BME280;5392;42.688;23.298;2023-03-18T11:41:23;57428.03;;;-144.48;61.68
10688;BME280;5392;42.688;23.298;2023-03-18T11:44:01;57440.56;;;-144.48;61.70
10688;BME280;5392;42.688;23.298;2023-03-18T11:46:49;57423.88;;;-144.48;62.26
10688;BME280;5392;42.688;23.298;2023-03-18T11:49:22;57463.53;;;-144.48;61.81
10688;BME280;5392;42.688;23.298;2023-03-18T11:57:36;57417.59;;;-144.48;61.12
10688;BME280;5392;42.688;23.298;2023-03-18T12:00:32;57398.81;;;-144.48;61.88
10688;BME280;5392;42.688;23.298;2023-03-18T12:06:22;57421.78;;;-144.48;60.28
10688;BME280;5392;42.688;23.298;2023-03-18T12:09:21;57465.59;;;-144.48;62.46
10688;BME280;5392;42.688;23.298;2023-03-18T12:12:15;57448.91;;;-144.48;61.03
10688;BME280;5392;42.688;23.298;2023-03-18T12:15:12;57425.94;;;-144.48;61.47
10688;BME280;5392;42.688;23.298;2023-03-18T12:29:23;57411.34;;;-144.48;61.50
10688;BME280;5392;42.688;23.298;2023-03-18T12:45:01;57467.69;;;-144.48;61.55
10688;BME280;5392;42.688;23.298;2023-03-18T12:47:33;57382.13;;;-144.48;62.13
10688;BME280;5392;42.688;23.298;2023-03-18T12:50:13;57417.59;;;-144.48;60.59
10688;BME280;5392;42.688;23.298;2023-03-18T12:52:49;57417.59;;;-144.48;61.27
10688;BME280;5392;42.688;23.298;2023-03-18T12:55:25;57403.00;;;-144.48;61.85
10688;BME280;5392;42.688;23.298;2023-03-18T13:00:38;57451.00;;;-144.48;61.66
10688;BME280;5392;42.688;23.298;2023-03-18T13:05:40;57411.34;;;-144.48;60.63
10688;BME280;5392;42.688;23.298;2023-03-18T13:10:40;57442.66;;;-144.48;60.70
10688;BME280;5392;42.688;23.298;2023-03-18T13:13:09;57436.38;;;-144.48;60.09
10688;BME280;5392;42.688;23.298;2023-03-18T13:15:40;57419.69;;;-144.48;60.06
10688;BME280;5392;42.688;23.298;2023-03-18T13:18:16;57442.66;;;-144.48;60.16
10688;BME280;5392;42.688;23.298;2023-03-18T13:20:45;57428.03;;;-144.48;59.69
10688;BME280;5392;42.688;23.298;2023-03-18T13:29:02;57413.44;;;-144.48;60.13
10688;BME280;5392;42.688;23.298;2023-03-18T13:32:03;57440.56;;;-144.48;59.94
10688;BME280;5392;42.688;23.298;2023-03-18T13:40:41;57436.38;;;-144.48;59.29
10688;BME280;5392;42.688;23.298;2023-03-18T13:43:14;57423.88;;;-144.48;59.29
10688;BME280;5392;42.688;23.298;2023-03-18T13:45:45;57430.13;;;-144.48;59.23
10688;BME280;5392;42.688;23.298;2023-03-18T13:48:16;57453.09;;;-144.48;59.18
10688;BME280;5392;42.688;23.298;2023-03-18T13:50:45;57440.56;;;-144.48;59.46
10688;BME280;5392;42.688;23.298;2023-03-18T13:53:24;57442.66;;;-144.48;59.65
10688;BME280;5392;42.688;23.298;2023-03-18T13:58:25;57386.28;;;-144.48;60.11
10688;BME280;5392;42.688;23.298;2023-03-18T14:08:43;57407.16;;;-144.48;60.31
10688;BME280;5392;42.688;23.298;2023-03-18T14:14:01;57436.38;;;-144.48;60.56
10688;BME280;5392;42.688;23.298;2023-03-18T14:19:02;57400.91;;;-144.48;60.58
10688;BME280;5392;42.688;23.298;2023-03-18T14:21:33;57446.81;;;-144.48;60.23
10688;BME280;5392;42.688;23.298;2023-03-18T14:29:37;57444.72;;;-144.48;60.38
10688;BME280;5392;42.688;23.298;2023-03-18T14:34:52;57421.78;;;-144.48;60.33
10688;BME280;5392;42.688;23.298;2023-03-18T14:37:29;57469.78;;;-144.48;60.02
10688;BME280;5392;42.688;23.298;2023-03-18T14:40:11;57398.81;;;-144.48;60.18
10688;BME280;5392;42.688;23.298;2023-03-18T14:42:58;57446.81;;;-144.48;60.19
10688;BME280;5392;42.688;23.298;2023-03-18T14:45:30;57457.25;;;-144.48;60.25
10688;BME280;5392;42.688;23.298;2023-03-18T14:48:02;57455.16;;;-144.48;59.98
10688;BME280;5392;42.688;23.298;2023-03-18T14:50:40;57388.38;;;-144.48;59.82